createdAt,value
2023-02-20T00:00:39.391Z,102500.06
2023-02-20T00:03:08.043Z,102499.84
2023-02-20T00:05:36.011Z,102498.84
2023-02-20T00:08:04.260Z,102496.81
2023-02-20T00:10:32.017Z,102493.16
2023-02-20T00:13:01.383Z,102495.59
2023-02-20T00:15:29.290Z,102503.25
2023-02-20T00:17:57.160Z,102499.63
2023-02-20T00:20:27.090Z,102502.84
2023-02-20T00:22:56.668Z,102505.47
2023-02-20T00:25:24.571Z,102490.28
2023-02-20T00:27:52.416Z,102483.22
2023-02-20T00:30:24.132Z,102468.28
2023-02-20T00:32:53.831Z,102480.19
2023-02-20T00:35:23.481Z,102473.69
2023-02-20T00:37:52.419Z,102464.78
2023-02-20T00:40:21.784Z,102461.75
2023-02-20T00:42:50.310Z,102459.13
2023-02-20T00:45:19.586Z,102461.53
2023-02-20T00:47:48.737Z,102462.34
2023-02-20T00:50:17.990Z,102447.16
2023-02-20T00:52:45.905Z,102442.72
2023-02-20T00:55:14.572Z,102435.03
2023-02-20T00:57:42.712Z,102434.84
2023-02-20T01:00:18.144Z,102435.66
2023-02-20T01:02:45.891Z,102428.78
2023-02-20T01:05:15.241Z,102420.31
2023-02-20T01:07:43.073Z,102423.94
2023-02-20T01:10:12.389Z,102409.41
2023-02-20T01:12:40.241Z,102398.13
2023-02-20T01:15:09.752Z,102387.00
2023-02-20T01:17:37.524Z,102374.09
2023-02-20T01:20:05.653Z,102364.81
2023-02-20T01:22:34.924Z,102371.09
2023-02-20T01:25:02.706Z,102365.84
2023-02-20T01:27:30.498Z,102366.63
2023-02-20T01:29:58.254Z,102368.47
2023-02-20T01:32:26.056Z,102366.03
2023-02-20T01:34:53.831Z,102366.25
2023-02-20T01:37:21.604Z,102373.09
2023-02-20T01:39:51.143Z,102361.00
2023-02-20T01:42:23.057Z,102361.22
2023-02-20T01:44:51.614Z,102361.00
2023-02-20T01:47:21.804Z,102353.34
2023-02-20T01:49:53.920Z,102358.38
2023-02-20T01:52:26.699Z,102362.81
2023-02-20T01:54:59.947Z,102347.66
2023-02-20T01:57:29.953Z,102362.19
2023-02-20T02:00:03.852Z,102360.72
2023-02-20T02:02:47.217Z,102360.13
2023-02-20T02:05:15.332Z,102359.88
2023-02-20T02:07:43.150Z,102353.19
2023-02-20T02:10:15.318Z,102345.09
2023-02-20T02:12:47.650Z,102335.97
2023-02-20T02:15:16.296Z,102323.19
2023-02-20T02:18:14.216Z,102318.53
2023-02-20T02:21:15.358Z,102317.88
2023-02-20T02:24:07.503Z,102327.75
2023-02-20T02:27:07.430Z,102314.19
2023-02-20T02:30:12.089Z,102314.97
2023-02-20T02:33:09.270Z,102315.56
2023-02-20T02:36:14.756Z,102310.91
2023-02-20T02:38:49.138Z,102303.59
2023-02-20T02:41:22.460Z,102309.25
2023-02-20T02:43:55.527Z,102306.97
2023-02-20T02:46:28.621Z,102292.59
2023-02-20T02:49:04.404Z,102291.13
2023-02-20T02:51:38.636Z,102294.94
2023-02-20T02:54:08.501Z,102285.81
2023-02-20T02:56:37.217Z,102295.06
2023-02-20T02:59:07.462Z,102285.75
2023-02-20T03:01:40.050Z,102302.09
2023-02-20T03:04:10.648Z,102284.03
2023-02-20T03:06:45.984Z,102282.78
2023-02-20T03:09:18.657Z,102289.00
2023-02-20T03:11:47.988Z,102287.75
2023-02-20T03:14:44.802Z,102284.91
2023-02-20T03:17:19.231Z,102298.19
2023-02-20T03:19:49.983Z,102288.06
2023-02-20T03:22:25.028Z,102287.38
2023-02-20T03:24:58.364Z,102279.84
2023-02-20T03:27:39.118Z,102287.53
2023-02-20T03:30:16.982Z,102273.09
2023-02-20T03:33:04.634Z,102277.09
2023-02-20T03:35:53.333Z,102277.69
2023-02-20T03:38:43.078Z,102269.59
2023-02-20T03:41:31.987Z,102269.94
2023-02-20T03:44:01.584Z,102268.47
2023-02-20T03:46:32.954Z,102260.56
2023-02-20T03:49:07.183Z,102261.97
2023-02-20T03:51:35.688Z,102263.31
2023-02-20T03:54:10.483Z,102257.84
2023-02-20T03:56:42.431Z,102260.25
2023-02-20T03:59:16.886Z,102258.19
2023-02-20T04:01:50.234Z,102257.75
2023-02-20T04:04:22.414Z,102256.72
2023-02-20T04:06:52.651Z,102249.41
2023-02-20T04:09:28.109Z,102238.88
2023-02-20T04:12:02.258Z,102251.56
2023-02-20T04:14:33.235Z,102257.44
2023-02-20T04:17:07.991Z,102248.47
2023-02-20T04:19:36.041Z,102253.31
2023-02-20T04:22:11.930Z,102256.50
2023-02-20T04:24:45.526Z,102245.75
2023-02-20T04:27:13.991Z,102245.53
2023-02-20T04:29:48.943Z,102238.22
2023-02-20T04:32:17.291Z,102251.94
2023-02-20T04:34:45.141Z,102250.31
2023-02-20T04:37:15.210Z,102245.66
2023-02-20T04:39:45.091Z,102246.22
2023-02-20T04:42:13.000Z,102238.09
2023-02-20T04:44:42.862Z,102231.00
2023-02-20T04:47:14.740Z,102236.84
2023-02-20T04:49:42.674Z,102262.16
2023-02-20T04:52:12.244Z,102239.22
2023-02-20T04:54:40.878Z,102241.66
2023-02-20T04:57:12.552Z,102243.81
2023-02-20T04:59:40.353Z,102240.16
2023-02-20T05:02:10.164Z,102238.09
2023-02-20T05:04:38.285Z,102239.94
2023-02-20T05:07:06.802Z,102230.78
2023-02-20T05:09:34.568Z,102239.25
2023-02-20T05:12:02.355Z,102239.25
2023-02-20T05:14:31.486Z,102239.84
2023-02-20T05:16:59.307Z,102236.16
2023-02-20T05:19:27.080Z,102250.13
2023-02-20T05:22:12.580Z,102237.78
2023-02-20T05:24:40.349Z,102240.41
2023-02-20T05:27:08.136Z,102232.25
2023-02-20T05:29:37.435Z,102222.53
2023-02-20T05:32:05.517Z,102245.00
2023-02-20T05:34:33.307Z,102233.41
2023-02-20T05:37:01.048Z,102237.41
2023-02-20T05:39:28.818Z,102235.59
2023-02-20T05:41:57.086Z,102248.31
2023-02-20T05:44:25.496Z,102229.06
2023-02-20T05:46:55.483Z,102227.00
2023-02-20T05:49:24.315Z,102232.84
2023-02-20T05:51:52.953Z,102231.81
2023-02-20T05:54:21.255Z,102222.66
2023-02-20T05:56:49.494Z,102223.22
2023-02-20T05:59:18.702Z,102238.78
2023-02-20T06:01:46.666Z,102232.50
2023-02-20T06:04:15.924Z,102226.19
2023-02-20T06:06:44.988Z,102220.44
2023-02-20T06:09:16.596Z,102225.47
2023-02-20T06:11:50.601Z,102217.38
2023-02-20T06:14:19.537Z,102215.28
2023-02-20T06:16:47.636Z,102221.13
2023-02-20T06:19:22.392Z,102220.88
2023-02-20T06:21:51.220Z,102224.91
2023-02-20T06:24:19.377Z,102233.63
2023-02-20T06:26:47.006Z,102231.78
2023-02-20T06:29:16.034Z,102228.69
2023-02-20T06:31:44.185Z,102232.91
2023-02-20T06:34:12.463Z,102232.91
2023-02-20T06:36:43.028Z,102229.25
2023-02-20T06:39:12.475Z,102228.22
2023-02-20T06:41:40.849Z,102233.47
2023-02-20T06:44:08.989Z,102228.22
2023-02-20T06:46:36.642Z,102225.56
2023-02-20T06:49:04.541Z,102227.75
2023-02-20T06:51:34.813Z,102230.38
2023-02-20T06:54:04.922Z,102227.75
2023-02-20T06:56:34.467Z,102223.28
2023-02-20T06:59:03.322Z,102220.41
2023-02-20T07:01:39.152Z,102232.56
2023-02-20T07:04:07.793Z,102236.78
2023-02-20T07:06:37.003Z,102228.88
2023-02-20T07:09:06.198Z,102236.00
2023-02-20T07:11:34.002Z,102233.13
2023-02-20T07:14:01.774Z,102233.13
2023-02-20T07:16:31.244Z,102238.97
2023-02-20T07:18:59.116Z,102246.88
2023-02-20T07:21:26.992Z,102243.22
2023-02-20T07:23:54.824Z,102232.44
2023-02-20T07:26:26.826Z,102236.44
2023-02-20T07:28:55.483Z,102241.72
2023-02-20T07:31:23.318Z,102241.47
2023-02-20T07:33:51.488Z,102252.84
2023-02-20T07:36:19.893Z,102251.00
2023-02-20T07:38:55.397Z,102240.22
2023-02-20T07:42:19.484Z,102241.03
2023-02-20T07:44:51.173Z,102240.56
2023-02-20T07:47:18.999Z,102243.19
2023-02-20T07:49:46.783Z,102245.59
2023-02-20T07:52:14.601Z,102245.34
2023-02-20T07:54:42.476Z,102262.53
2023-02-20T07:57:10.322Z,102245.69
2023-02-20T07:59:39.414Z,102240.41
2023-02-20T08:02:07.704Z,102236.28
2023-02-20T08:04:35.450Z,102229.97
2023-02-20T08:07:03.229Z,102232.38
2023-02-20T08:09:30.968Z,102232.72
2023-02-20T08:11:58.757Z,102232.47
2023-02-20T08:14:28.374Z,102252.31
2023-02-20T08:16:57.529Z,102229.13
2023-02-20T08:19:28.273Z,102228.88
2023-02-20T08:21:56.162Z,102230.03
2023-02-20T08:24:23.988Z,102228.53
2023-02-20T08:26:52.087Z,102230.91
2023-02-20T08:29:19.864Z,102232.28
2023-02-20T08:31:47.758Z,102232.84
2023-02-20T08:34:17.055Z,102234.72
2023-02-20T08:36:44.878Z,102234.81
2023-02-20T08:39:12.662Z,102216.78
2023-02-20T08:41:44.281Z,102221.56
2023-02-20T08:44:12.178Z,102237.97
2023-02-20T08:46:47.179Z,102221.91
2023-02-20T08:49:14.887Z,102219.25
2023-02-20T08:51:43.980Z,102220.94
2023-02-20T08:54:11.889Z,102228.38
2023-02-20T08:56:39.789Z,102227.81
2023-02-20T08:59:07.583Z,102246.56
2023-02-20T09:01:35.787Z,102233.34
2023-02-20T09:04:03.815Z,102230.94
2023-02-20T09:06:31.578Z,102226.22
2023-02-20T09:09:00.716Z,102231.03
2023-02-20T09:11:28.696Z,102222.53
2023-02-20T09:13:56.679Z,102221.97
2023-02-20T09:16:25.611Z,102221.75
2023-02-20T09:18:57.395Z,102224.63
2023-02-20T09:21:25.436Z,102219.91
2023-02-20T09:23:53.209Z,102234.13
2023-02-20T09:26:22.391Z,102224.63
2023-02-20T09:28:50.173Z,102233.56
2023-02-20T09:31:18.098Z,102220.38
2023-02-20T09:33:51.116Z,102220.63
2023-02-20T09:36:19.378Z,102215.34
2023-02-20T09:38:47.156Z,102215.59
2023-02-20T09:41:29.999Z,102229.91
2023-02-20T09:44:05.845Z,102222.53
2023-02-20T09:46:34.024Z,102218.38
2023-02-20T09:49:06.949Z,102220.00
2023-02-20T09:51:38.228Z,102220.56
2023-02-20T09:54:09.099Z,102208.47
2023-02-20T09:56:42.402Z,102231.75
2023-02-20T09:59:16.283Z,102219.13
2023-02-20T10:01:53.325Z,102211.19
2023-02-20T10:04:25.333Z,102209.09
2023-02-20T10:06:55.908Z,102224.94
2023-02-20T10:09:23.727Z,102230.06
2023-02-20T10:12:05.992Z,102225.38
2023-02-20T10:14:59.549Z,102216.19
2023-02-20T10:17:35.274Z,102218.31
2023-02-20T10:20:10.215Z,102210.94
2023-02-20T10:22:45.515Z,102215.22
2023-02-20T10:25:20.915Z,102230.03
2023-02-20T10:27:55.766Z,102240.81
2023-02-20T10:30:30.313Z,102218.31
2023-02-20T10:33:03.761Z,102221.28
2023-02-20T10:35:41.739Z,102206.81
2023-02-20T10:38:13.196Z,102190.72
2023-02-20T10:40:46.698Z,102207.09
2023-02-20T10:43:23.207Z,102216.66
2023-02-20T10:45:56.957Z,102209.75
2023-02-20T10:48:27.890Z,102203.09
2023-02-20T10:51:06.153Z,102191.25
2023-02-20T10:53:42.106Z,102207.53
2023-02-20T10:56:15.223Z,102206.47
2023-02-20T10:58:50.742Z,102196.72
2023-02-20T11:01:21.996Z,102193.25
2023-02-20T11:03:55.867Z,102206.47
2023-02-20T11:06:30.479Z,102218.09
2023-02-20T11:08:58.319Z,102203.81
2023-02-20T11:11:32.845Z,102195.34
2023-02-20T11:14:03.684Z,102198.78
2023-02-20T11:16:37.026Z,102209.59
2023-02-20T11:19:09.930Z,102198.25
2023-02-20T11:21:39.891Z,102181.88
2023-02-20T11:24:27.181Z,102162.91
2023-02-20T11:27:00.686Z,102196.53
2023-02-20T11:29:36.376Z,102192.28
2023-02-20T11:32:26.932Z,102179.03
2023-02-20T11:35:36.315Z,102164.19
2023-02-20T11:38:29.113Z,102166.03
2023-02-20T11:41:27.745Z,102176.38
2023-02-20T11:44:26.894Z,102182.22
2023-02-20T11:47:24.489Z,102193.34
2023-02-20T11:50:19.134Z,102170.38
2023-02-20T11:52:59.582Z,102167.94
2023-02-20T11:55:29.556Z,102176.69
2023-02-20T11:57:57.777Z,102184.94
2023-02-20T12:00:26.849Z,102195.72
2023-02-20T12:03:04.515Z,102213.50
2023-02-20T12:05:40.838Z,102194.22
2023-02-20T12:08:32.727Z,102199.16
2023-02-20T12:11:05.079Z,102213.50
2023-02-20T12:13:37.775Z,102192.84
2023-02-20T12:16:31.246Z,102205.00
2023-02-20T12:19:09.305Z,102182.34
2023-02-20T12:21:50.721Z,102191.16
2023-02-20T12:24:42.804Z,102180.81
2023-02-20T12:27:27.923Z,102191.94
2023-02-20T12:30:04.201Z,102184.56
2023-02-20T12:32:42.222Z,102171.34
2023-02-20T12:35:32.891Z,102165.09
2023-02-20T12:38:19.851Z,102168.06
2023-02-20T12:41:22.263Z,102176.25
2023-02-20T12:44:11.352Z,102180.47
2023-02-20T12:46:51.307Z,102176.25
2023-02-20T12:49:39.115Z,102164.38
2023-02-20T12:52:25.717Z,102156.19
2023-02-20T12:55:01.482Z,102146.44
2023-02-20T12:57:40.301Z,102135.34
2023-02-20T13:00:20.008Z,102152.34
2023-02-20T13:02:51.402Z,102147.34
2023-02-20T13:05:23.570Z,102150.03
2023-02-20T13:07:55.945Z,102145.31
2023-02-20T13:10:26.542Z,102149.56
2023-02-20T13:12:55.326Z,102140.56
2023-02-20T13:15:34.739Z,102146.19
2023-02-20T13:18:12.622Z,102157.03
2023-02-20T13:20:47.425Z,102159.13
2023-02-20T13:23:29.823Z,102150.38
2023-02-20T13:25:58.409Z,102145.38
2023-02-20T13:28:47.098Z,102143.94
2023-02-20T13:31:20.839Z,102127.28
2023-02-20T13:33:51.699Z,102124.91
2023-02-20T13:36:39.623Z,102119.53
2023-02-20T13:39:43.827Z,102116.69
2023-02-20T13:42:34.625Z,102110.31
2023-02-20T13:45:02.737Z,102115.66
2023-02-20T13:47:38.281Z,102106.44
2023-02-20T13:50:29.580Z,102107.06
2023-02-20T13:52:57.930Z,102104.22
2023-02-20T13:55:27.365Z,102115.84
2023-02-20T13:57:58.484Z,102105.63
2023-02-20T14:00:34.836Z,102103.78
2023-02-20T14:03:02.595Z,102102.22
2023-02-20T14:05:32.220Z,102113.81
2023-02-20T14:08:00.944Z,102099.66
2023-02-20T14:10:31.038Z,102105.72
2023-02-20T14:13:03.480Z,102097.72
2023-02-20T14:15:43.907Z,102086.03
2023-02-20T14:18:17.266Z,102085.97
2023-02-20T14:20:45.829Z,102071.16
2023-02-20T14:23:23.306Z,102066.63
2023-02-20T14:26:12.886Z,102058.94
2023-02-20T14:28:46.810Z,102066.63
2023-02-20T14:31:23.871Z,102063.75
2023-02-20T14:33:53.674Z,102085.97
2023-02-20T14:36:33.549Z,102078.78
2023-02-20T14:39:12.392Z,102083.28
2023-02-20T14:41:40.384Z,102082.00
2023-02-20T14:44:18.430Z,102082.19
2023-02-20T14:46:47.286Z,102075.28
2023-02-20T14:49:16.594Z,102078.19
2023-02-20T14:51:44.665Z,102080.09
2023-02-20T14:54:18.663Z,102091.41
2023-02-20T14:56:47.153Z,102083.16
2023-02-20T14:59:27.293Z,102083.66
2023-02-20T15:02:01.496Z,102084.47
2023-02-20T15:04:30.370Z,102077.56
2023-02-20T15:07:05.005Z,102089.44
2023-02-20T15:09:41.110Z,102085.75
2023-02-20T15:12:19.552Z,102084.16
2023-02-20T15:14:55.755Z,102083.59
2023-02-20T15:17:26.078Z,102090.25
2023-02-20T15:19:59.495Z,102082.53
2023-02-20T15:22:39.766Z,102079.34
2023-02-20T15:25:27.523Z,102071.41
2023-02-20T15:28:06.782Z,102079.84
2023-02-20T15:30:36.595Z,102074.00
2023-02-20T15:33:04.426Z,102072.97
2023-02-20T15:35:33.477Z,102066.66
2023-02-20T15:38:03.583Z,102072.16
2023-02-20T15:40:34.509Z,102073.44
2023-02-20T15:43:08.310Z,102071.31
2023-02-20T15:45:42.542Z,102082.13
2023-02-20T15:48:11.479Z,102083.72
2023-02-20T15:50:39.285Z,102073.91
2023-02-20T15:53:08.677Z,102077.34
2023-02-20T15:55:37.034Z,102075.47
2023-02-20T15:58:24.465Z,102077.34
2023-02-20T16:00:55.927Z,102082.38
2023-02-20T16:03:24.435Z,102083.94
2023-02-20T16:05:52.880Z,102082.91
2023-02-20T16:08:21.975Z,102084.53
2023-02-20T16:10:50.493Z,102072.34
2023-02-20T16:13:26.249Z,102066.78
2023-02-20T16:15:55.529Z,102062.53
2023-02-20T16:18:24.557Z,102067.25
2023-02-20T16:20:53.330Z,102066.72
2023-02-20T16:23:21.168Z,102066.94
2023-02-20T16:25:49.018Z,102072.22
2023-02-20T16:28:16.818Z,102075.66
2023-02-20T16:30:46.124Z,102069.56
2023-02-20T16:33:17.491Z,102080.13
2023-02-20T16:35:45.604Z,102098.41
2023-02-20T16:38:13.483Z,102082.00
2023-02-20T16:40:41.404Z,102087.28
2023-02-20T16:43:12.199Z,102078.00
2023-02-20T16:45:43.529Z,102080.66
2023-02-20T16:48:17.538Z,102090.66
2023-02-20T16:50:45.650Z,102083.78
2023-02-20T16:53:13.708Z,102085.31
2023-02-20T16:55:42.975Z,102089.53
2023-02-20T16:58:11.126Z,102088.72
2023-02-20T17:00:47.801Z,102085.53
2023-02-20T17:03:27.627Z,102086.09
2023-02-20T17:05:59.531Z,102072.88
2023-02-20T17:08:27.805Z,102082.66
2023-02-20T17:10:56.071Z,102071.56
2023-02-20T17:13:23.854Z,102076.84
2023-02-20T17:15:51.794Z,102062.00
2023-02-20T17:18:19.640Z,102065.47
2023-02-20T17:20:48.938Z,102072.59
2023-02-20T17:23:16.802Z,102076.25
2023-02-20T17:25:44.666Z,102070.41
2023-02-20T17:28:12.723Z,102078.34
2023-02-20T17:30:40.447Z,102079.41
2023-02-20T17:33:08.295Z,102085.72
2023-02-20T17:35:36.051Z,102083.31
2023-02-20T17:38:05.236Z,102099.66
2023-02-20T17:40:32.999Z,102090.38
2023-02-20T17:43:00.810Z,102087.19
2023-02-20T17:45:28.676Z,102100.03
2023-02-20T17:47:56.603Z,102099.50
2023-02-20T17:50:24.677Z,102092.38
2023-02-20T17:52:54.487Z,102097.09
2023-02-20T17:55:27.035Z,102086.00
2023-02-20T17:57:55.404Z,102087.03
2023-02-20T18:00:23.913Z,102074.38
2023-02-20T18:02:51.829Z,102072.47
2023-02-20T18:05:19.726Z,102075.34
2023-02-20T18:07:47.559Z,102070.56
2023-02-20T18:10:15.322Z,102075.53
2023-02-20T18:12:44.471Z,102079.44
2023-02-20T18:15:12.359Z,102082.31
2023-02-20T18:17:40.139Z,102087.03
2023-02-20T18:20:08.351Z,102088.91
2023-02-20T18:22:35.944Z,102087.28
2023-02-20T18:25:03.746Z,102092.31
2023-02-20T18:27:31.726Z,102090.72
2023-02-20T18:30:00.899Z,102086.25
2023-02-20T18:32:28.803Z,102080.97
2023-02-20T18:34:56.770Z,102093.13
2023-02-20T18:37:24.583Z,102076.47
2023-02-20T18:39:52.389Z,102081.75
2023-02-20T18:42:20.275Z,102083.84
2023-02-20T18:44:49.065Z,102075.91
2023-02-20T18:47:18.337Z,102070.91
2023-02-20T18:49:48.712Z,102070.91
2023-02-20T18:52:16.712Z,102073.75
2023-02-20T18:54:44.477Z,102072.16
2023-02-20T18:57:12.286Z,102082.72
2023-02-20T18:59:41.634Z,102075.84
2023-02-20T19:02:13.058Z,102075.06
2023-02-20T19:04:43.392Z,102070.81
2023-02-20T19:07:11.374Z,102067.38
2023-02-20T19:09:39.664Z,102061.28
2023-02-20T19:12:08.184Z,102066.56
2023-02-20T19:14:37.427Z,102064.97
2023-02-20T19:17:07.516Z,102074.72
2023-02-20T19:19:35.372Z,102071.84
2023-02-20T19:22:04.666Z,102084.81
2023-02-20T19:24:32.502Z,102068.97
2023-02-20T19:27:00.264Z,102081.63
2023-02-20T19:29:28.066Z,102067.06
2023-02-20T19:31:56.531Z,102058.91
2023-02-20T19:34:24.468Z,102058.09
2023-02-20T19:36:53.439Z,102071.28
2023-02-20T19:39:24.326Z,102073.91
2023-02-20T19:41:52.273Z,102067.88
2023-02-20T19:44:23.463Z,102071.53
2023-02-20T19:46:53.129Z,102065.44
2023-02-20T19:49:21.798Z,102059.63
2023-02-20T19:51:51.002Z,102063.88
2023-02-20T19:54:23.693Z,102070.19
2023-02-20T19:56:53.025Z,102066.72
2023-02-20T19:59:21.298Z,102062.25
2023-02-20T20:01:50.827Z,102056.19
2023-02-20T20:04:18.991Z,102063.28
2023-02-20T20:06:46.778Z,102062.25
2023-02-20T20:09:30.126Z,102052.72
2023-02-20T20:12:02.933Z,102053.78
2023-02-20T20:14:30.752Z,102057.22
2023-02-20T20:16:58.616Z,102049.31
2023-02-20T20:19:26.847Z,102052.97
2023-02-20T20:21:54.518Z,102050.09
2023-02-20T20:24:22.367Z,102053.78
2023-02-20T20:26:50.142Z,102055.38
2023-02-20T20:29:19.334Z,102047.47
2023-02-20T20:31:47.204Z,102041.16
2023-02-20T20:34:15.302Z,102041.97
2023-02-20T20:36:43.085Z,102046.44
2023-02-20T20:39:10.931Z,102056.97
2023-02-20T20:41:44.947Z,102050.69
2023-02-20T20:44:13.461Z,102043.31
2023-02-20T20:46:42.644Z,102045.97
2023-02-20T20:49:12.339Z,102025.06
2023-02-20T20:51:42.072Z,102038.03
2023-02-20T20:54:10.202Z,102043.88
2023-02-20T20:56:38.099Z,102035.16
2023-02-20T20:59:07.452Z,102028.84
2023-02-20T21:01:35.568Z,102029.06
2023-02-20T21:04:04.892Z,102037.78
2023-02-20T21:06:32.785Z,102041.22
2023-02-20T21:09:00.571Z,102043.88
2023-02-20T21:11:28.733Z,102040.16
2023-02-20T21:13:56.427Z,102045.44
2023-02-20T21:16:24.304Z,102033.88
2023-02-20T21:18:52.168Z,102027.56
2023-02-20T21:21:26.480Z,102038.13
2023-02-20T21:23:54.337Z,102027.56
2023-02-20T21:26:22.254Z,102027.56
2023-02-20T21:28:50.287Z,102035.22
2023-02-20T21:31:20.560Z,102020.19
2023-02-20T21:33:50.637Z,102021.78
2023-02-20T21:36:18.920Z,102018.09
2023-02-20T21:38:47.896Z,102015.47
2023-02-20T21:41:33.823Z,102019.94
2023-02-20T21:44:19.261Z,102014.41
2023-02-20T21:46:49.622Z,102013.63
2023-02-20T21:49:18.266Z,102005.47
2023-02-20T21:51:46.110Z,102012.34
2023-02-20T21:54:16.055Z,102018.41
2023-02-20T21:56:43.847Z,102007.63
2023-02-20T21:59:10.660Z,101997.84
2023-02-20T22:01:38.817Z,102014.50
2023-02-20T22:04:07.784Z,102014.50
2023-02-20T22:06:35.086Z,102013.47
2023-02-20T22:09:20.459Z,102009.00
2023-02-20T22:12:07.386Z,102004.47
2023-02-20T22:14:53.412Z,102013.22
2023-02-20T22:17:38.688Z,102017.69
2023-02-20T22:20:24.856Z,102011.63
2023-02-20T22:23:10.469Z,102018.47
2023-02-20T22:25:55.858Z,102009.53
2023-02-20T22:28:42.158Z,102013.47
2023-02-20T22:31:27.696Z,102016.09
2023-02-20T22:34:12.998Z,102010.81
2023-02-20T22:36:58.166Z,102006.56
2023-02-20T22:39:43.669Z,102004.75
2023-02-20T22:42:34.536Z,102022.41
2023-02-20T22:45:22.637Z,102025.84
2023-02-20T22:48:08.127Z,102011.84
2023-02-20T22:50:53.392Z,102016.31
2023-02-20T22:53:38.770Z,102023.22
2023-02-20T22:56:24.245Z,102016.09
2023-02-20T22:59:09.369Z,102024.00
2023-02-20T23:01:55.814Z,102030.88
2023-02-20T23:04:41.086Z,102026.09
2023-02-20T23:07:26.326Z,102020.03
2023-02-20T23:10:11.766Z,102029.78
2023-02-20T23:12:56.841Z,102029.78
2023-02-20T23:15:42.084Z,102024.50
2023-02-20T23:18:28.709Z,102025.28
2023-02-20T23:21:14.366Z,102020.03
2023-02-20T23:23:59.988Z,102026.31
2023-02-20T23:26:44.949Z,102016.81
2023-02-20T23:29:30.453Z,102015.22
2023-02-20T23:32:15.925Z,102019.47
2023-02-20T23:35:02.483Z,102024.75
2023-02-20T23:37:47.582Z,102023.94
2023-02-20T23:40:36.805Z,102035.31
2023-02-20T23:43:22.783Z,102027.38
2023-02-20T23:46:08.303Z,102028.19
2023-02-20T23:48:54.038Z,102023.13
2023-02-20T23:51:40.728Z,102033.47
2023-02-20T23:54:26.445Z,102032.66
2023-02-20T23:57:11.467Z,102038.75
2023-02-20T23:59:57.001Z,102033.47
